Time;durP1;ratioP1;P1;durP2;ratioP2;P2;SDS_P1;SDS_P2;PMS_P1;PMS_P2;Temp;Humidity;BMP_temperature;BMP_pressure;BME280_temperature;BME280_humidity;BME280_pressure;Samples;Min_cycle;Max_cycle;Signal;HPM_P1;HPM_P2
2023/08/12 00:01:39;;;;;;;;;3.67;3.67;;;;;;;;5054232;28;45559;-79
2023/08/12 00:04:05;;;;;;;;;5.50;4.25;;;;;;;;5072157;28;45525;-78
2023/08/12 00:06:30;;;;;;;;;3.00;2.67;;;;;;;;5063663;28;45485;-77
2023/08/12 00:08:55;;;;;;;;;4.75;2.75;;;;;;;;5053715;28;45992;-78
2023/08/12 00:11:20;;;;;;;;;3.33;3.33;;;;;;;;5048679;28;45834;-78
2023/08/12 00:13:45;;;;;;;;;3.00;3.00;;;;;;;;5049953;28;45718;-77
2023/08/12 00:16:15;;;;;;;;;2.33;2.33;;;;;;;;5069606;28;45469;-79
2023/08/12 00:18:40;;;;;;;;;3.33;3.33;;;;;;;;5049341;28;45671;-80
2023/08/12 00:21:09;;;;;;;;;3.00;3.00;;;;;;;;5072365;28;45926;-80
2023/08/12 00:23:40;;;;;;;;;4.67;3.33;;;;;;;;5069223;28;45552;-78
2023/08/12 00:26:14;;;;;;;;;4.00;4.00;;;;;;;;5074887;28;45401;-79
2023/08/12 00:28:39;;;;;;;;;3.00;3.00;;;;;;;;5068072;28;46636;-79
2023/08/12 00:31:07;;;;;;;;;4.00;4.00;;;;;;;;5057033;28;45527;-78
2023/08/12 00:33:33;;;;;;;;;5.00;3.25;;;;;;;;5056124;28;45561;-78
2023/08/12 00:35:58;;;;;;;;;5.00;3.50;;;;;;;;5044792;28;45761;-78
2023/08/12 00:38:24;;;;;;;;;6.50;4.25;;;;;;;;5061624;28;46003;-78
2023/08/12 00:40:55;;;;;;;;;4.50;3.00;;;;;;;;5064525;28;45701;-81
2023/08/12 00:43:21;;;;;;;;;4.00;4.00;;;;;;;;5070166;28;45470;-79
2023/08/12 00:45:51;;;;;;;;;1.50;1.50;;;;;;;;5055289;28;46928;-80
2023/08/12 00:48:50;;;;;;;;;4.33;4.33;;;;;;;;5075346;28;46426;-80
2023/08/12 00:51:26;;;;;;;;;4.00;4.00;;;;;;;;5064324;28;46329;-80
2023/08/12 00:53:57;;;;;;;;;7.00;4.00;;;;;;;;5075642;28;45541;-80
2023/08/12 00:56:33;;;;;;;;;3.00;3.00;;;;;;;;5074443;28;45493;-78
2023/08/12 00:59:00;;;;;;;;;3.00;3.00;;;;;;;;5075029;28;45478;-80
2023/08/12 01:01:27;;;;;;;;;5.25;4.00;;;;;;;;5071257;28;45564;-80
2023/08/12 01:03:55;;;;;;;;;4.50;4.00;;;;;;;;5066136;28;45605;-79
2023/08/12 01:06:27;;;;;;;;;3.33;3.33;;;;;;;;5043514;28;46026;-80
2023/08/12 01:08:53;;;;;;;;;4.33;4.33;;;;;;;;5066250;28;45932;-81
2023/08/12 01:11:26;;;;;;;;;3.00;3.00;;;;;;;;5065773;28;45577;-79
2023/08/12 01:14:06;;;;;;;;;2.00;2.00;;;;;;;;5072155;28;45471;-79
2023/08/12 01:16:38;;;;;;;;;4.50;4.50;;;;;;;;5055329;28;45646;-79
2023/08/12 01:19:09;;;;;;;;;5.00;3.75;;;;;;;;5073267;28;45997;-80
2023/08/12 01:21:46;;;;;;;;;5.25;3.00;;;;;;;;5068000;28;45475;-79
2023/08/12 01:24:12;;;;;;;;;3.50;3.00;;;;;;;;5041338;28;45594;-79
2023/08/12 01:26:47;;;;;;;;;5.33;3.33;;;;;;;;5069942;28;45556;-80
2023/08/12 01:29:22;;;;;;;;;5.75;4.00;;;;;;;;5071078;28;45853;-80
2023/08/12 01:32:18;;;;;;;;;3.00;3.00;;;;;;;;5066853;28;45836;-82
2023/08/12 01:34:51;;;;;;;;;4.50;3.00;;;;;;;;4968948;28;45736;-80
2023/08/12 01:37:27;;;;;;;;;4.25;3.25;;;;;;;;5062483;28;45476;-82
2023/08/12 01:40:28;;;;;;;;;4.00;3.00;;;;;;;;5050881;28;46507;-80
2023/08/12 01:42:55;;;;;;;;;3.00;3.00;;;;;;;;5057440;28;45859;-81
2023/08/12 01:45:35;;;;;;;;;2.33;2.33;;;;;;;;5071334;28;45752;-81
2023/08/12 01:48:05;;;;;;;;;2.00;2.00;;;;;;;;5071815;28;46012;-80
2023/08/12 01:50:35;;;;;;;;;2.00;2.00;;;;;;;;5059911;28;46505;-79
2023/08/12 01:53:09;;;;;;;;;3.67;3.67;;;;;;;;5072244;28;45812;-80
2023/08/12 01:55:37;;;;;;;;;2.00;2.00;;;;;;;;5054478;28;45531;-81
2023/08/12 01:58:06;;;;;;;;;3.00;2.50;;;;;;;;5060719;28;45483;-81
2023/08/12 02:00:38;;;;;;;;;3.00;3.00;;;;;;;;5075671;28;45723;-81
2023/08/12 02:03:06;;;;;;;;;2.25;2.25;;;;;;;;5078110;28;45848;-80
2023/08/12 02:05:37;;;;;;;;;5.33;3.67;;;;;;;;5086400;28;44791;-80
2023/08/12 02:08:08;;;;;;;;;2.00;2.00;;;;;;;;5069712;28;45437;-81
2023/08/12 02:10:39;;;;;;;;;1.75;1.75;;;;;;;;5067989;28;46245;-80
2023/08/12 02:13:11;;;;;;;;;2.75;2.75;;;;;;;;5069858;28;45886;-80
2023/08/12 02:15:43;;;;;;;;;5.00;3.00;;;;;;;;5072196;28;45616;-80
2023/08/12 02:18:18;;;;;;;;;3.00;3.00;;;;;;;;5058361;28;45671;-79
2023/08/12 02:20:57;;;;;;;;;5.00;3.00;;;;;;;;5071484;28;45461;-80
2023/08/12 02:23:27;;;;;;;;;2.00;2.00;;;;;;;;5067113;28;45957;-81
2023/08/12 02:26:00;;;;;;;;;2.00;2.00;;;;;;;;5059934;28;45763;-82
2023/08/12 02:28:31;;;;;;;;;6.00;2.00;;;;;;;;5065086;28;45393;-81
2023/08/12 02:31:01;;;;;;;;;1.75;1.75;;;;;;;;5047079;28;45513;-80
2023/08/12 02:33:28;;;;;;;;;2.00;2.00;;;;;;;;5049534;28;45673;-81
2023/08/12 02:35:55;;;;;;;;;1.00;1.00;;;;;;;;5071350;28;45978;-78
2023/08/12 02:38:21;;;;;;;;;1.25;1.25;;;;;;;;5065782;28;46086;-80
2023/08/12 02:40:49;;;;;;;;;1.00;1.00;;;;;;;;5058267;28;45894;-80
2023/08/12 02:43:16;;;;;;;;;1.75;1.75;;;;;;;;5049621;28;45776;-79
2023/08/12 02:45:47;;;;;;;;;1.75;1.75;;;;;;;;5053007;28;45476;-78
2023/08/12 02:48:24;;;;;;;;;2.00;2.00;;;;;;;;5071427;28;45880;-81
2023/08/12 02:50:57;;;;;;;;;1.00;1.00;;;;;;;;5071186;28;45769;-79
2023/08/12 02:53:28;;;;;;;;;2.00;0.00;;;;;;;;5071078;28;45507;-79
2023/08/12 02:56:05;;;;;;;;;1.00;1.00;;;;;;;;5066166;28;45891;-79
2023/08/12 02:58:35;;;;;;;;;0.25;0.25;;;;;;;;5073923;28;45545;-76
2023/08/12 03:01:01;;;;;;;;;0.00;0.00;;;;;;;;5044787;28;45828;-78
2023/08/12 03:03:26;;;;;;;;;0.00;0.00;;;;;;;;5067530;28;45877;-78
2023/08/12 03:05:53;;;;;;;;;0.50;0.00;;;;;;;;5069644;28;45830;-77
2023/08/12 03:08:19;;;;;;;;;0.00;0.00;;;;;;;;5067790;28;45415;-77
2023/08/12 03:10:44;;;;;;;;;0.00;0.00;;;;;;;;5058495;28;46751;-76
2023/08/12 03:13:10;;;;;;;;;0.50;0.00;;;;;;;;5056682;28;45705;-76
2023/08/12 03:15:38;;;;;;;;;1.00;1.00;;;;;;;;5072692;28;45862;-78
2023/08/12 03:18:04;;;;;;;;;0.00;0.00;;;;;;;;5066402;28;45621;-75
2023/08/12 03:20:29;;;;;;;;;0.00;0.00;;;;;;;;5056446;28;46065;-78
2023/08/12 03:22:55;;;;;;;;;1.00;0.00;;;;;;;;5073438;28;45340;-78
2023/08/12 03:25:26;;;;;;;;;0.00;0.00;;;;;;;;5053148;28;45689;-80
2023/08/12 03:27:52;;;;;;;;;0.00;0.00;;;;;;;;5069585;28;45725;-79
2023/08/12 03:30:20;;;;;;;;;0.25;0.00;;;;;;;;5069879;28;46376;-78
2023/08/12 03:32:50;;;;;;;;;0.00;0.00;;;;;;;;5064411;28;45575;-79
2023/08/12 03:35:19;;;;;;;;;0.00;0.00;;;;;;;;5068940;28;45568;-79
2023/08/12 03:37:44;;;;;;;;;0.50;0.00;;;;;;;;5064037;28;45513;-78
2023/08/12 03:40:10;;;;;;;;;0.00;0.00;;;;;;;;5055521;28;46938;-77
2023/08/12 03:42:35;;;;;;;;;0.00;0.00;;;;;;;;5074303;28;45423;-79
2023/08/12 03:45:01;;;;;;;;;0.00;0.00;;;;;;;;5072653;28;45445;-78
2023/08/12 03:47:29;;;;;;;;;0.00;0.00;;;;;;;;5064662;28;46125;-79
2023/08/12 03:49:54;;;;;;;;;0.00;0.00;;;;;;;;5056270;28;46292;-79
2023/08/12 03:52:26;;;;;;;;;0.00;0.00;;;;;;;;5049537;28;45580;-79
2023/08/12 03:54:53;;;;;;;;;0.75;0.75;;;;;;;;5062889;28;45461;-79
2023/08/12 03:57:19;;;;;;;;;0.00;0.00;;;;;;;;5053129;28;45905;-79
2023/08/12 03:59:47;;;;;;;;;0.00;0.00;;;;;;;;5057653;28;46038;-79
2023/08/12 04:02:13;;;;;;;;;1.00;0.00;;;;;;;;5074902;28;45636;-76
2023/08/12 04:04:43;;;;;;;;;0.00;0.00;;;;;;;;5061327;28;45727;-78
2023/08/12 04:07:10;;;;;;;;;1.00;0.00;;;;;;;;5089287;28;45413;-80
2023/08/12 04:09:36;;;;;;;;;0.00;0.00;;;;;;;;5077522;28;45866;-79
2023/08/12 04:12:04;;;;;;;;;0.00;0.00;;;;;;;;5072090;28;45468;-78
2023/08/12 04:14:32;;;;;;;;;0.00;0.00;;;;;;;;5071383;28;45615;-79
2023/08/12 04:17:01;;;;;;;;;0.00;0.00;;;;;;;;5072065;28;45592;-80
2023/08/12 04:19:28;;;;;;;;;0.00;0.00;;;;;;;;5062173;28;47079;-84
2023/08/12 04:21:55;;;;;;;;;0.00;0.00;;;;;;;;5049218;28;45568;-81
2023/08/12 04:24:22;;;;;;;;;0.00;0.00;;;;;;;;5067835;28;45557;-80
2023/08/12 04:26:51;;;;;;;;;0.00;0.00;;;;;;;;5067058;28;45167;-79
2023/08/12 04:29:18;;;;;;;;;0.00;0.00;;;;;;;;5057120;28;46257;-80
2023/08/12 04:31:52;;;;;;;;;0.25;0.00;;;;;;;;5056674;28;45501;-81
2023/08/12 04:34:34;;;;;;;;;0.00;0.00;;;;;;;;5045196;28;45897;-81
2023/08/12 04:37:16;;;;;;;;;0.25;0.00;;;;;;;;5055750;28;45862;-81
2023/08/12 04:39:56;;;;;;;;;0.00;0.00;;;;;;;;5068887;28;46457;-82
2023/08/12 04:42:24;;;;;;;;;0.00;0.00;;;;;;;;5064502;28;45662;-84
2023/08/12 04:44:51;;;;;;;;;0.00;0.00;;;;;;;;5078301;28;45424;-85
2023/08/12 04:47:16;;;;;;;;;0.75;0.75;;;;;;;;5046752;28;45851;-86
2023/08/12 04:49:44;;;;;;;;;0.00;0.00;;;;;;;;5069589;28;46017;-84
2023/08/12 04:52:10;;;;;;;;;0.00;0.00;;;;;;;;5062463;28;45315;-86
2023/08/12 04:54:35;;;;;;;;;0.00;0.00;;;;;;;;5075503;28;45560;-85
2023/08/12 04:57:02;;;;;;;;;0.00;0.00;;;;;;;;5054249;28;45674;-84
2023/08/12 04:59:28;;;;;;;;;0.00;0.00;;;;;;;;5051692;28;46689;-84
2023/08/12 05:01:54;;;;;;;;;0.00;0.00;;;;;;;;5054220;28;45472;-83
2023/08/12 05:04:22;;;;;;;;;0.00;0.00;;;;;;;;5078188;28;45968;-82
2023/08/12 05:06:58;;;;;;;;;0.00;0.00;;;;;;;;5066996;28;45577;-84
2023/08/12 05:09:25;;;;;;;;;0.00;0.00;;;;;;;;5078626;28;45525;-85
2023/08/12 05:11:54;;;;;;;;;0.00;0.00;;;;;;;;5065087;28;45449;-84
2023/08/12 05:14:22;;;;;;;;;0.00;0.00;;;;;;;;5074433;28;45429;-84
2023/08/12 05:16:51;;;;;;;;;0.00;0.00;;;;;;;;5075435;28;45381;-87
2023/08/12 05:19:19;;;;;;;;;0.50;0.50;;;;;;;;5058813;28;47037;-84
2023/08/12 05:21:47;;;;;;;;;0.00;0.00;;;;;;;;5077654;28;45465;-86
2023/08/12 05:24:12;;;;;;;;;0.00;0.00;;;;;;;;5075313;28;45473;-86
2023/08/12 05:26:38;;;;;;;;;0.00;0.00;;;;;;;;5080026;28;45762;-87
2023/08/12 05:29:04;;;;;;;;;0.00;0.00;;;;;;;;5065558;28;47857;-84
2023/08/12 05:31:29;;;;;;;;;0.00;0.00;;;;;;;;5064602;28;45838;-87
2023/08/12 05:33:56;;;;;;;;;30.67;28.67;;;;;;;;5077143;28;45509;-85
2023/08/12 05:36:21;;;;;;;;;2.00;0.00;;;;;;;;5076812;28;45547;-86
2023/08/12 05:38:46;;;;;;;;;0.00;0.00;;;;;;;;5060220;28;47783;-88
2023/08/12 05:41:12;;;;;;;;;0.00;0.00;;;;;;;;5067090;28;45834;-80
2023/08/12 05:43:42;;;;;;;;;0.00;0.00;;;;;;;;5065455;28;45615;-83
2023/08/12 05:46:07;;;;;;;;;0.50;0.50;;;;;;;;5056824;28;45609;-84
2023/08/12 05:48:33;;;;;;;;;0.25;0.25;;;;;;;;5069219;28;46266;-81
2023/08/12 05:51:01;;;;;;;;;0.00;0.00;;;;;;;;5079486;28;44806;-84
2023/08/12 05:53:28;;;;;;;;;0.00;0.00;;;;;;;;5083185;28;45388;-87
2023/08/12 05:55:53;;;;;;;;;0.00;0.00;;;;;;;;5066451;28;44973;-83
2023/08/12 05:58:20;;;;;;;;;0.00;0.00;;;;;;;;5089187;28;45676;-86
2023/08/12 06:00:46;;;;;;;;;0.25;0.25;;;;;;;;5090630;27;45778;-85
2023/08/12 06:03:14;;;;;;;;;0.00;0.00;;;;;;;;5054319;28;45370;-84
2023/08/12 06:05:42;;;;;;;;;0.00;0.00;;;;;;;;5065019;28;46081;-85
2023/08/12 06:08:07;;;;;;;;;0.00;0.00;;;;;;;;5061200;28;45498;-86
2023/08/12 06:10:33;;;;;;;;;0.00;0.00;;;;;;;;5082260;28;45500;-88
2023/08/12 06:13:03;;;;;;;;;1.00;0.00;;;;;;;;5065134;28;45391;-85
2023/08/12 06:15:29;;;;;;;;;0.00;0.00;;;;;;;;5049116;28;46145;-88
2023/08/12 06:17:55;;;;;;;;;0.00;0.00;;;;;;;;5065033;28;46348;-81
2023/08/12 06:20:20;;;;;;;;;0.00;0.00;;;;;;;;5053608;28;45928;-88
2023/08/12 06:22:46;;;;;;;;;0.00;0.00;;;;;;;;5067045;28;45298;-89
2023/08/12 06:25:12;;;;;;;;;2.00;0.00;;;;;;;;5068643;28;45536;-83
2023/08/12 06:27:37;;;;;;;;;0.00;0.00;;;;;;;;5069938;28;45452;-81
2023/08/12 06:30:03;;;;;;;;;1.00;0.00;;;;;;;;5053448;28;45711;-84
2023/08/12 06:32:28;;;;;;;;;1.00;1.00;;;;;;;;5056952;28;45465;-89
2023/08/12 06:34:53;;;;;;;;;0.25;0.00;;;;;;;;5078739;28;44863;-83
2023/08/12 06:37:19;;;;;;;;;2.00;1.00;;;;;;;;5058835;28;46326;-85
2023/08/12 06:39:44;;;;;;;;;1.00;1.00;;;;;;;;5065704;28;45824;-86
2023/08/12 06:42:09;;;;;;;;;1.00;1.00;;;;;;;;5057212;28;45553;-85
2023/08/12 06:44:35;;;;;;;;;0.00;0.00;;;;;;;;5049407;28;45863;-85
2023/08/12 06:47:00;;;;;;;;;0.00;0.00;;;;;;;;5061476;28;45519;-87
2023/08/12 06:49:26;;;;;;;;;0.25;0.25;;;;;;;;5085293;28;45461;-87
2023/08/12 06:51:51;;;;;;;;;0.00;0.00;;;;;;;;5072056;28;45305;-86
2023/08/12 06:54:16;;;;;;;;;0.00;0.00;;;;;;;;5081972;28;45364;-87
2023/08/12 06:56:42;;;;;;;;;0.00;0.00;;;;;;;;5083115;28;45663;-86
2023/08/12 06:59:08;;;;;;;;;0.00;0.00;;;;;;;;5062973;28;45325;-86
2023/08/12 07:01:33;;;;;;;;;0.00;0.00;;;;;;;;5075789;28;45034;-88
2023/08/12 07:04:00;;;;;;;;;0.00;0.00;;;;;;;;5062893;28;46152;-85
2023/08/12 07:06:25;;;;;;;;;1.00;0.00;;;;;;;;5083651;28;45367;-87
2023/08/12 07:08:50;;;;;;;;;3.25;0.00;;;;;;;;5066794;28;45509;-87
2023/08/12 07:11:16;;;;;;;;;0.00;0.00;;;;;;;;5086005;28;45142;-88
2023/08/12 07:13:42;;;;;;;;;0.00;0.00;;;;;;;;5065267;28;46376;-87
2023/08/12 07:16:10;;;;;;;;;0.75;0.75;;;;;;;;5077836;28;45192;-87
2023/08/12 07:18:35;;;;;;;;;0.25;0.00;;;;;;;;5080649;28;45427;-86
2023/08/12 07:21:00;;;;;;;;;0.50;0.50;;;;;;;;5080204;28;45345;-87
2023/08/12 07:23:26;;;;;;;;;2.00;0.00;;;;;;;;5067201;27;45787;-87
2023/08/12 07:25:51;;;;;;;;;0.00;0.00;;;;;;;;5075616;28;46809;-87
2023/08/12 07:28:16;;;;;;;;;3.00;1.00;;;;;;;;5063558;28;44858;-88
2023/08/12 07:30:42;;;;;;;;;0.00;0.00;;;;;;;;5066909;28;45459;-86
2023/08/12 07:33:07;;;;;;;;;3.75;0.00;;;;;;;;5086535;28;45341;-86
2023/08/12 07:35:32;;;;;;;;;1.00;1.00;;;;;;;;5068520;28;47345;-87
2023/08/12 07:37:58;;;;;;;;;0.00;0.00;;;;;;;;5084042;28;46137;-86
2023/08/12 07:40:23;;;;;;;;;0.00;0.00;;;;;;;;5077545;28;44764;-87
2023/08/12 07:42:49;;;;;;;;;1.50;1.50;;;;;;;;5072421;28;45480;-88
2023/08/12 07:45:14;;;;;;;;;3.75;2.00;;;;;;;;5096037;28;45328;-86
2023/08/12 07:47:40;;;;;;;;;0.00;0.00;;;;;;;;5063019;28;45376;-86
2023/08/12 07:50:05;;;;;;;;;1.00;1.00;;;;;;;;5056255;28;45372;-88
2023/08/12 07:52:30;;;;;;;;;3.25;1.25;;;;;;;;5065410;28;45920;-86
2023/08/12 07:54:56;;;;;;;;;0.25;0.25;;;;;;;;5065908;28;45498;-88
2023/08/12 07:57:23;;;;;;;;;3.00;0.00;;;;;;;;5067188;28;45834;-87
2023/08/12 07:59:49;;;;;;;;;2.25;0.50;;;;;;;;5065989;28;45378;-87
2023/08/12 08:02:14;;;;;;;;;4.25;0.00;;;;;;;;5081191;28;45588;-86
2023/08/12 08:04:39;;;;;;;;;3.00;1.00;;;;;;;;5061864;28;47935;-87
2023/08/12 08:07:05;;;;;;;;;1.00;1.00;;;;;;;;5081331;28;45465;-87
2023/08/12 08:09:30;;;;;;;;;0.75;0.75;;;;;;;;5083467;28;45544;-87
2023/08/12 08:11:55;;;;;;;;;3.25;2.00;;;;;;;;5064200;28;47374;-87
2023/08/12 08:14:21;;;;;;;;;1.00;1.00;;;;;;;;5081377;28;45820;-88
2023/08/12 08:16:46;;;;;;;;;1.75;0.00;;;;;;;;5061676;28;46008;-88
2023/08/12 08:19:11;;;;;;;;;1.00;1.00;;;;;;;;5062016;28;45401;-85
2023/08/12 08:21:37;;;;;;;;;1.50;1.00;;;;;;;;5064389;28;46421;-86
2023/08/12 08:24:02;;;;;;;;;2.00;1.00;;;;;;;;5084649;28;46161;-90
2023/08/12 08:26:27;;;;;;;;;1.50;0.00;;;;;;;;5065407;28;45414;-88
2023/08/12 08:28:53;;;;;;;;;1.00;1.00;;;;;;;;5060778;28;45512;-88
2023/08/12 08:31:38;;;;;;;;;0.25;0.25;;;;;;;;5064733;28;46019;-85
2023/08/12 08:34:05;;;;;;;;;4.00;1.00;;;;;;;;5065622;28;47228;-87
2023/08/12 08:36:30;;;;;;;;;1.00;1.00;;;;;;;;5067281;28;45343;-89
2023/08/12 08:38:55;;;;;;;;;1.50;1.50;;;;;;;;5066671;28;45415;-89
2023/08/12 08:41:21;;;;;;;;;0.00;0.00;;;;;;;;5083050;28;45234;-88
2023/08/12 08:43:48;;;;;;;;;3.00;1.00;;;;;;;;5078388;28;46404;-88
2023/08/12 08:46:14;;;;;;;;;1.00;1.00;;;;;;;;5071107;28;45513;-88
2023/08/12 08:48:40;;;;;;;;;2.75;1.25;;;;;;;;5072658;28;44827;-87
2023/08/12 08:51:06;;;;;;;;;1.00;1.00;;;;;;;;5067816;28;46122;-88
2023/08/12 08:53:34;;;;;;;;;0.00;0.00;;;;;;;;5086493;28;45848;-88
2023/08/12 08:56:00;;;;;;;;;1.00;1.00;;;;;;;;5067563;28;45464;-90
2023/08/12 08:58:27;;;;;;;;;0.00;0.00;;;;;;;;5067762;28;45660;-88
2023/08/12 09:00:52;;;;;;;;;0.00;0.00;;;;;;;;5065306;28;45758;-89
2023/08/12 09:03:18;;;;;;;;;1.00;1.00;;;;;;;;5067510;28;47157;-87
2023/08/12 09:05:45;;;;;;;;;0.20;0.20;;;;;;;;5085357;28;45471;-89
2023/08/12 09:08:12;;;;;;;;;1.75;1.00;;;;;;;;5064646;28;45532;-89
2023/08/12 09:10:40;;;;;;;;;1.50;0.50;;;;;;;;5062867;28;46296;-88
2023/08/12 09:13:06;;;;;;;;;1.75;1.00;;;;;;;;5062099;28;45480;-87
2023/08/12 09:15:31;;;;;;;;;2.00;1.00;;;;;;;;5070064;28;45512;-89
2023/08/12 09:17:56;;;;;;;;;0.75;0.75;;;;;;;;5072993;28;44860;-88
2023/08/12 09:20:28;;;;;;;;;1.75;1.00;;;;;;;;5078430;27;45629;-89
2023/08/12 09:22:57;;;;;;;;;3.00;3.00;;;;;;;;5080684;27;47331;-88
2023/08/12 09:25:23;;;;;;;;;0.20;0.20;;;;;;;;5092687;28;45526;-89
2023/08/12 09:27:49;;;;;;;;;1.25;1.00;;;;;;;;5065902;28;45539;-88
2023/08/12 09:30:14;;;;;;;;;1.75;1.00;;;;;;;;5054955;28;45592;-88
2023/08/12 09:32:40;;;;;;;;;1.00;0.00;;;;;;;;5069115;28;47071;-87
2023/08/12 09:35:06;;;;;;;;;2.00;0.25;;;;;;;;5077279;28;45342;-88
2023/08/12 09:37:31;;;;;;;;;2.25;1.00;;;;;;;;5080215;28;45430;-88
2023/08/12 09:39:58;;;;;;;;;0.75;0.75;;;;;;;;5093789;28;44872;-86
2023/08/12 09:42:23;;;;;;;;;0.50;0.50;;;;;;;;5062381;28;47836;-87
2023/08/12 09:44:48;;;;;;;;;1.75;1.75;;;;;;;;5060566;28;45761;-89
2023/08/12 09:47:14;;;;;;;;;3.00;1.00;;;;;;;;5066038;28;45498;-89
2023/08/12 09:49:40;;;;;;;;;1.25;1.00;;;;;;;;5070681;28;45499;-89
2023/08/12 09:52:06;;;;;;;;;1.75;1.50;;;;;;;;5060219;28;46719;-89
2023/08/12 09:54:38;;;;;;;;;2.00;2.00;;;;;;;;5068747;28;45651;-87
2023/08/12 09:57:12;;;;;;;;;2.00;1.00;;;;;;;;5080702;28;44764;-90
2023/08/12 09:59:46;;;;;;;;;0.75;0.75;;;;;;;;5064148;28;46185;-87
2023/08/12 10:02:13;;;;;;;;;1.50;0.50;;;;;;;;5065601;28;46177;-88
2023/08/12 10:04:43;;;;;;;;;0.40;0.00;;;;;;;;5070257;28;45415;-87
2023/08/12 10:07:09;;;;;;;;;1.00;1.00;;;;;;;;5049152;28;45630;-87
2023/08/12 10:09:35;;;;;;;;;1.00;1.00;;;;;;;;5078223;28;45520;-87
2023/08/12 10:12:01;;;;;;;;;0.25;0.25;;;;;;;;5062272;28;48576;-89
2023/08/12 10:14:27;;;;;;;;;1.75;1.75;;;;;;;;5062017;28;45618;-87
2023/08/12 10:16:54;;;;;;;;;1.00;1.00;;;;;;;;5067291;28;45460;-87
2023/08/12 10:19:21;;;;;;;;;1.00;1.00;;;;;;;;5072758;28;45623;-87
2023/08/12 10:21:47;;;;;;;;;2.25;0.25;;;;;;;;5060789;28;46121;-88
2023/08/12 10:24:16;;;;;;;;;1.00;1.00;;;;;;;;5064871;28;45570;-88
2023/08/12 10:26:42;;;;;;;;;0.00;0.00;;;;;;;;5074127;28;45754;-90
2023/08/12 10:29:07;;;;;;;;;1.00;1.00;;;;;;;;5069683;28;45728;-89
2023/08/12 10:31:35;;;;;;;;;2.00;0.25;;;;;;;;5046747;28;46875;-88
2023/08/12 10:34:00;;;;;;;;;1.00;1.00;;;;;;;;5053317;28;45489;-89
2023/08/12 10:36:26;;;;;;;;;1.00;1.00;;;;;;;;5076658;28;46067;-90
2023/08/12 10:38:52;;;;;;;;;1.25;1.25;;;;;;;;5061825;28;46813;-87
2023/08/12 10:41:18;;;;;;;;;1.00;1.00;;;;;;;;5049857;28;45145;-86
2023/08/12 10:43:55;;;;;;;;;1.40;1.40;;;;;;;;5052753;28;45783;-86
2023/08/12 10:46:36;;;;;;;;;0.25;0.25;;;;;;;;5079210;28;44787;-87
2023/08/12 10:49:03;;;;;;;;;0.00;0.00;;;;;;;;5084958;28;45832;-87
2023/08/12 10:51:42;;;;;;;;;2.00;0.75;;;;;;;;5053575;28;46566;-89
2023/08/12 10:54:18;;;;;;;;;0.25;0.25;;;;;;;;5066963;28;45259;-88
2023/08/12 10:57:10;;;;;;;;;1.00;1.00;;;;;;;;5060035;28;45709;-88
2023/08/12 10:59:46;;;;;;;;;1.00;1.00;;;;;;;;5078746;28;45443;-87
2023/08/12 11:02:18;;;;;;;;;1.00;1.00;;;;;;;;5077318;28;47145;-87
2023/08/12 11:04:43;;;;;;;;;1.00;1.00;;;;;;;;5094678;28;45441;-89
2023/08/12 11:07:16;;;;;;;;;0.50;0.00;;;;;;;;5071992;28;45045;-88
2023/08/12 11:09:41;;;;;;;;;0.00;0.00;;;;;;;;5081696;28;45311;-87
2023/08/12 11:12:10;;;;;;;;;1.00;1.00;;;;;;;;5064653;28;47000;-88
2023/08/12 11:14:48;;;;;;;;;0.00;0.00;;;;;;;;5081228;28;45507;-87
2023/08/12 11:17:14;;;;;;;;;1.00;0.00;;;;;;;;5081793;28;44829;-90
2023/08/12 11:19:41;;;;;;;;;0.00;0.00;;;;;;;;5068765;28;46151;-88
2023/08/12 11:22:07;;;;;;;;;0.75;0.75;;;;;;;;5066677;28;47505;-90
2023/08/12 11:24:33;;;;;;;;;2.00;1.00;;;;;;;;5059572;28;45482;-88
2023/08/12 11:27:00;;;;;;;;;1.00;1.00;;;;;;;;5071283;28;45239;-90
2023/08/12 11:29:26;;;;;;;;;3.50;0.75;;;;;;;;5064988;28;46288;-88
2023/08/12 11:31:51;;;;;;;;;1.25;0.75;;;;;;;;5065330;28;47173;-89
2023/08/12 11:34:17;;;;;;;;;1.00;1.00;;;;;;;;5060333;28;45468;-89
2023/08/12 11:36:42;;;;;;;;;2.75;1.25;;;;;;;;5065952;28;45434;-88
2023/08/12 11:39:08;;;;;;;;;1.00;0.00;;;;;;;;5071256;28;46329;-88
2023/08/12 11:41:34;;;;;;;;;0.75;0.75;;;;;;;;5070536;28;47136;-90
2023/08/12 11:43:59;;;;;;;;;0.40;0.40;;;;;;;;5065779;28;45838;-87
2023/08/12 11:46:25;;;;;;;;;0.50;0.50;;;;;;;;5064396;28;45753;-89
2023/08/12 11:48:50;;;;;;;;;0.50;0.50;;;;;;;;5062056;28;47409;-89
2023/08/12 11:51:16;;;;;;;;;1.00;1.00;;;;;;;;5063272;28;46296;-81
2023/08/12 11:53:41;;;;;;;;;0.50;0.50;;;;;;;;5072610;28;45659;-81
2023/08/12 11:56:06;;;;;;;;;1.00;0.50;;;;;;;;5054651;28;45451;-80
2023/08/12 11:58:36;;;;;;;;;1.00;1.00;;;;;;;;5075104;28;45576;-80
2023/08/12 12:01:02;;;;;;;;;2.00;0.75;;;;;;;;5076114;28;46503;-82
2023/08/12 12:03:27;;;;;;;;;0.25;0.25;;;;;;;;5049045;28;45213;-80
2023/08/12 12:05:55;;;;;;;;;0.25;0.25;;;;;;;;5073675;28;45563;-82
2023/08/12 12:08:20;;;;;;;;;3.00;0.00;;;;;;;;5076438;28;45787;-80
2023/08/12 12:10:45;;;;;;;;;0.00;0.00;;;;;;;;5056671;28;45414;-81
2023/08/12 12:13:12;;;;;;;;;0.00;0.00;;;;;;;;5063023;28;45796;-82
2023/08/12 12:15:38;;;;;;;;;0.00;0.00;;;;;;;;5071999;28;45459;-82
2023/08/12 12:18:09;;;;;;;;;0.00;0.00;;;;;;;;5074828;28;45556;-82
2023/08/12 12:20:34;;;;;;;;;0.75;0.75;;;;;;;;5072379;28;46306;-82
2023/08/12 12:23:05;;;;;;;;;0.00;0.00;;;;;;;;5073302;28;45649;-81
2023/08/12 12:25:30;;;;;;;;;1.50;1.00;;;;;;;;5073896;28;45512;-81
2023/08/12 12:27:56;;;;;;;;;2.00;1.00;;;;;;;;5074205;28;45551;-81
2023/08/12 12:30:21;;;;;;;;;0.00;0.00;;;;;;;;5068141;28;45814;-81
2023/08/12 12:32:47;;;;;;;;;1.00;1.00;;;;;;;;5053583;28;45741;-82
2023/08/12 12:35:12;;;;;;;;;1.50;1.50;;;;;;;;5054571;28;45700;-80
2023/08/12 12:37:38;;;;;;;;;0.00;0.00;;;;;;;;5071275;28;45578;-81
2023/08/12 12:40:05;;;;;;;;;2.00;1.00;;;;;;;;5047688;28;47062;-87
2023/08/12 12:42:30;;;;;;;;;0.00;0.00;;;;;;;;5084007;28;44721;-87
2023/08/12 12:44:56;;;;;;;;;0.75;0.00;;;;;;;;5095378;28;45497;-89
2023/08/12 12:47:21;;;;;;;;;0.00;0.00;;;;;;;;5073487;28;46058;-87
2023/08/12 12:49:46;;;;;;;;;1.00;1.00;;;;;;;;5083774;28;45450;-86
2023/08/12 12:52:12;;;;;;;;;0.25;0.00;;;;;;;;5089233;28;44985;-86
2023/08/12 12:54:37;;;;;;;;;1.00;1.00;;;;;;;;5080801;28;45445;-87
2023/08/12 12:57:03;;;;;;;;;3.00;2.00;;;;;;;;5080785;28;45734;-87
2023/08/12 12:59:29;;;;;;;;;0.75;0.75;;;;;;;;5066833;28;45848;-87
2023/08/12 13:01:54;;;;;;;;;1.00;1.00;;;;;;;;5065708;28;45849;-86
2023/08/12 13:04:20;;;;;;;;;2.00;0.75;;;;;;;;5066415;28;44797;-86
2023/08/12 13:06:46;;;;;;;;;0.25;0.25;;;;;;;;5064718;28;45859;-88
2023/08/12 13:09:11;;;;;;;;;2.00;1.00;;;;;;;;5061591;28;47473;-87
2023/08/12 13:11:36;;;;;;;;;0.75;0.75;;;;;;;;5065164;28;45504;-86
2023/08/12 13:14:02;;;;;;;;;1.00;1.00;;;;;;;;5076507;28;45380;-87
2023/08/12 13:16:28;;;;;;;;;1.00;0.75;;;;;;;;5082866;28;45436;-89
2023/08/12 13:18:53;;;;;;;;;0.00;0.00;;;;;;;;5082472;28;46101;-87
2023/08/12 13:21:18;;;;;;;;;1.00;1.00;;;;;;;;5053736;28;45476;-87
2023/08/12 13:23:44;;;;;;;;;2.00;2.00;;;;;;;;5072382;28;45334;-88
2023/08/12 13:26:09;;;;;;;;;2.50;1.25;;;;;;;;5059764;28;45712;-87
2023/08/12 13:28:34;;;;;;;;;0.00;0.00;;;;;;;;5074251;28;46890;-88
2023/08/12 13:31:00;;;;;;;;;0.75;0.75;;;;;;;;5067509;28;45694;-85
2023/08/12 13:33:25;;;;;;;;;1.00;0.00;;;;;;;;5061044;28;45617;-88
2023/08/12 13:35:50;;;;;;;;;1.00;1.00;;;;;;;;5055873;28;45803;-86
2023/08/12 13:38:16;;;;;;;;;1.50;0.50;;;;;;;;5054270;28;48022;-89
2023/08/12 13:40:42;;;;;;;;;1.00;1.00;;;;;;;;5056686;28;45403;-87
2023/08/12 13:43:07;;;;;;;;;0.75;0.75;;;;;;;;5076146;28;45873;-88
2023/08/12 13:45:32;;;;;;;;;0.75;0.75;;;;;;;;5063073;28;45753;-88
2023/08/12 13:47:57;;;;;;;;;1.00;1.00;;;;;;;;5060921;28;48168;-87
2023/08/12 13:50:23;;;;;;;;;1.00;1.00;;;;;;;;5060194;28;45132;-89
2023/08/12 13:52:50;;;;;;;;;1.00;1.00;;;;;;;;5052703;28;45832;-86
2023/08/12 13:55:15;;;;;;;;;2.00;0.25;;;;;;;;5062362;28;45832;-88
2023/08/12 13:57:40;;;;;;;;;1.25;0.75;;;;;;;;5066862;28;46386;-87
2023/08/12 14:00:09;;;;;;;;;2.00;1.00;;;;;;;;5062231;28;45441;-88
2023/08/12 14:02:35;;;;;;;;;1.25;1.00;;;;;;;;5055950;28;45352;-87
2023/08/12 14:05:00;;;;;;;;;2.25;1.00;;;;;;;;5080150;28;45438;-88
2023/08/12 14:07:26;;;;;;;;;1.00;1.00;;;;;;;;5081798;28;45472;-87
2023/08/12 14:09:51;;;;;;;;;1.00;1.00;;;;;;;;5062503;28;45505;-87
2023/08/12 14:12:17;;;;;;;;;3.00;1.50;;;;;;;;5050269;28;45822;-90
2023/08/12 14:14:42;;;;;;;;;1.00;1.00;;;;;;;;5059076;28;45691;-85
2023/08/12 14:17:08;;;;;;;;;0.25;0.25;;;;;;;;5050594;28;46735;-87
2023/08/12 14:19:33;;;;;;;;;2.75;1.50;;;;;;;;5064791;28;45121;-86
2023/08/12 14:21:58;;;;;;;;;0.00;0.00;;;;;;;;5055017;28;45474;-86
2023/08/12 14:24:24;;;;;;;;;1.00;1.00;;;;;;;;5086018;28;45414;-86
2023/08/12 14:26:49;;;;;;;;;1.00;1.00;;;;;;;;5078387;28;45662;-85
2023/08/12 14:29:14;;;;;;;;;2.00;1.00;;;;;;;;5076154;28;46071;-86
2023/08/12 14:31:39;;;;;;;;;1.00;1.00;;;;;;;;5094609;28;45258;-86
2023/08/12 14:34:05;;;;;;;;;2.75;1.25;;;;;;;;5065472;28;45993;-87
2023/08/12 14:36:31;;;;;;;;;1.25;1.25;;;;;;;;5060533;28;45375;-86
2023/08/12 14:38:57;;;;;;;;;0.00;0.00;;;;;;;;5081108;28;44856;-86
2023/08/12 14:41:22;;;;;;;;;1.00;1.00;;;;;;;;5066610;28;45579;-87
2023/08/12 14:43:47;;;;;;;;;2.00;2.00;;;;;;;;5081111;28;45344;-85
2023/08/12 14:46:12;;;;;;;;;1.00;1.00;;;;;;;;5063919;28;45474;-86